Angleton, TX

4:46 PM CST on November 24, 2014 (GMT -0600)
Bay City | Change Station
CLOSE
Current Station
Airport
Location: Bay City,
Elevation: 46 ft
Nearby Weather Stations

Elev 46 ft 28.97 °N, 95.86 °W | Updated 11 minutes ago

Clear
Clear
63 °F
Feels Like 63 °F
N
7
Wind Variable Wind from North
Gusts 17 mph

Today
High -- | Low -- °F
--% Chance of Precip.
Yesterday
High -- | Low -- °F
Precip. -- in
6:52 AM 5:24 PM
Waxing Crescent, 7% visible
Pressure 30.02 in
Visibility 10.0 miles
Clouds
Dew Point 34 °F
Humidity 33%
Rainfall 0.03 in
Snow Depth Not available.
UV Not available.
Pollen 3.20 out of 12
Air Quality Not available.
Flu Activity Not available.
METAR KBYY 242235Z AUTO 36006KT 10SM 16/01 A3002 RMK AO2 T01730009

More Conditions Fewer Conditions

Pressure 30.02 in
Visibility 10.0 miles
Clouds
Dew Point 34 °F
Humidity 33%
Rainfall 0.03 in
Snow Depth Not available.
UV Not available.
Pollen 3.20 out of 12
Air Quality Not available.
Flu Activity Not available.
METAR KBYY 242235Z AUTO 36006KT 10SM 16/01 A3002 RMK AO2 T01730009

More Conditions Fewer Conditions

10-Day Weather Forecast

Almanac

Astronomy

Nov. 24, 2014 Rise Set
Actual Time
Civil Twilight
Nautical Twilight
Astronomical Twilight
Moon
Length of Visible Light
Length of Day
Tomorrow will be .
, % of the Moon is Illuminated

Today's Extremes

State Highs State Lows

Community

WunderPhotos

Upload Photos

1,773,427 photos uploaded!

WunderBlogs® & News

Nearby

Air Quality

  Air Quality AQ Index Pollutant
Not available.

Snow Depth

Station Depth Elevation

Earthquake Activity

City Distance Mag. Time & Date
Minimum magnitude displayed is 2.5.

Coastal Water Temperatures

Place Temperature

Nearby Weather Stations